createdAt,value
2023-07-27T00:00:16.767Z,84.96
2023-07-27T00:02:43.305Z,84.10
2023-07-27T00:05:09.903Z,84.22
2023-07-27T00:07:36.488Z,84.21
2023-07-27T00:10:03.094Z,84.04
2023-07-27T00:12:29.517Z,85.01
2023-07-27T00:14:55.962Z,85.21
2023-07-27T00:17:22.561Z,84.98
2023-07-27T00:19:49.047Z,85.33
2023-07-27T00:22:15.497Z,85.34
2023-07-27T00:24:42.017Z,85.35
2023-07-27T00:27:08.530Z,85.13
2023-07-27T00:29:34.949Z,85.73
2023-07-27T00:32:01.720Z,86.23
2023-07-27T00:34:28.232Z,85.76
2023-07-27T00:36:54.704Z,86.41
2023-07-27T00:39:21.526Z,85.23
2023-07-27T00:41:48.014Z,86.38
2023-07-27T00:44:14.468Z,86.19
2023-07-27T00:46:41.338Z,86.04
2023-07-27T00:49:08.246Z,86.59
2023-07-27T00:51:40.135Z,87.15
2023-07-27T00:54:07.664Z,87.09
2023-07-27T00:56:38.146Z,86.80
2023-07-27T00:59:05.656Z,88.43
2023-07-27T01:01:32.179Z,87.57
2023-07-27T01:03:58.989Z,87.37
2023-07-27T01:06:25.787Z,87.66
2023-07-27T01:08:55.478Z,87.22
2023-07-27T01:11:28.282Z,88.41
2023-07-27T01:14:00.767Z,87.63
2023-07-27T01:16:34.240Z,87.99
2023-07-27T01:19:13.085Z,87.88
2023-07-27T01:21:44.763Z,86.98
2023-07-27T01:24:25.611Z,88.41
2023-07-27T01:26:57.313Z,88.65
2023-07-27T01:29:58.558Z,87.84
2023-07-27T01:32:25.775Z,87.87
2023-07-27T01:34:55.862Z,88.53
2023-07-27T01:37:22.426Z,88.91
2023-07-27T01:39:51.328Z,88.92
2023-07-27T01:42:18.852Z,89.04
2023-07-27T01:44:46.091Z,88.64
2023-07-27T01:47:12.871Z,88.46
2023-07-27T01:49:40.786Z,89.45
2023-07-27T01:52:08.245Z,89.50
2023-07-27T01:54:35.601Z,89.66
2023-07-27T01:57:02.655Z,89.76
2023-07-27T01:59:29.530Z,89.56
2023-07-27T02:01:56.121Z,90.29
2023-07-27T02:04:22.796Z,90.14
2023-07-27T02:06:52.428Z,89.94
2023-07-27T02:09:19.172Z,90.97
2023-07-27T02:11:48.530Z,90.99
2023-07-27T02:14:39.546Z,90.73
2023-07-27T02:17:10.823Z,90.59
2023-07-27T02:19:38.912Z,90.97
2023-07-27T02:22:05.608Z,91.96
2023-07-27T02:24:32.386Z,92.07
2023-07-27T02:26:58.954Z,91.30
2023-07-27T02:29:25.408Z,91.47
2023-07-27T02:31:51.975Z,92.58
2023-07-27T02:34:20.431Z,91.99
2023-07-27T02:36:46.900Z,92.40
2023-07-27T02:39:13.414Z,92.22
2023-07-27T02:41:39.834Z,92.22
2023-07-27T02:44:06.270Z,92.34
2023-07-27T02:46:32.910Z,92.74
2023-07-27T02:48:59.572Z,92.87
2023-07-27T02:51:26.019Z,93.83
2023-07-27T02:53:52.425Z,93.57
2023-07-27T02:56:18.913Z,93.20
2023-07-27T02:58:45.373Z,92.96
2023-07-27T03:01:11.895Z,92.92
2023-07-27T03:03:38.402Z,92.93
2023-07-27T03:06:04.888Z,93.32
2023-07-27T03:08:32.036Z,93.04
2023-07-27T03:11:02.876Z,93.48
2023-07-27T03:13:29.538Z,93.81
2023-07-27T03:15:56.399Z,94.29
2023-07-27T03:18:23.230Z,95.59
2023-07-27T03:20:49.695Z,94.33
2023-07-27T03:23:16.166Z,95.28
2023-07-27T03:25:42.708Z,96.01
2023-07-27T03:28:09.463Z,95.40
2023-07-27T03:30:36.794Z,95.94
2023-07-27T03:33:04.266Z,95.41
2023-07-27T03:35:31.032Z,96.05
2023-07-27T03:37:57.504Z,95.63
2023-07-27T03:40:23.984Z,96.08
2023-07-27T03:42:50.455Z,96.66
2023-07-27T03:45:17.632Z,96.89
2023-07-27T03:47:46.513Z,97.65
2023-07-27T03:50:13.853Z,97.65
2023-07-27T03:52:40.757Z,97.51
2023-07-27T03:55:07.435Z,98.11
2023-07-27T03:57:33.878Z,96.89
2023-07-27T04:00:00.641Z,97.21
2023-07-27T04:02:28.129Z,96.96
2023-07-27T04:04:55.082Z,97.07
2023-07-27T04:07:22.070Z,96.43
2023-07-27T04:09:48.546Z,97.44
2023-07-27T04:12:15.038Z,97.39
2023-07-27T04:14:41.474Z,98.21
2023-07-27T04:17:07.934Z,98.36
2023-07-27T04:19:35.208Z,98.26
2023-07-27T04:22:01.675Z,99.14
2023-07-27T04:24:28.193Z,98.94
2023-07-27T04:26:54.731Z,98.75
2023-07-27T04:29:21.221Z,99.43
2023-07-27T04:31:47.692Z,99.60
2023-07-27T04:34:14.286Z,100.00
2023-07-27T04:36:40.727Z,100.00
2023-07-27T04:39:07.203Z,100.00
2023-07-27T04:41:33.707Z,100.00
2023-07-27T04:44:00.535Z,100.00
2023-07-27T04:46:27.057Z,100.00
2023-07-27T04:48:53.563Z,100.00
2023-07-27T04:51:20.003Z,100.00
2023-07-27T04:53:46.500Z,100.00
2023-07-27T04:56:12.951Z,100.00
2023-07-27T04:58:39.412Z,100.00
2023-07-27T05:01:05.865Z,100.00
2023-07-27T05:03:32.452Z,100.00
2023-07-27T05:05:58.939Z,100.00
2023-07-27T05:08:25.454Z,100.00
2023-07-27T05:10:51.913Z,100.00
2023-07-27T05:13:18.400Z,100.00
2023-07-27T05:15:45.233Z,100.00
2023-07-27T05:18:11.710Z,100.00
2023-07-27T05:20:38.171Z,100.00
2023-07-27T05:23:04.617Z,100.00
2023-07-27T05:25:31.103Z,100.00
2023-07-27T05:27:57.572Z,100.00
2023-07-27T05:30:24.070Z,100.00
2023-07-27T05:32:50.643Z,100.00
2023-07-27T05:35:17.229Z,100.00
2023-07-27T05:37:47.540Z,100.00
2023-07-27T05:40:17.291Z,100.00
2023-07-27T05:42:44.459Z,100.00
2023-07-27T05:45:11.157Z,100.00
2023-07-27T05:47:37.734Z,100.00
2023-07-27T05:50:04.673Z,100.00
2023-07-27T05:52:31.428Z,100.00
2023-07-27T05:54:57.930Z,100.00
2023-07-27T05:57:24.961Z,100.00
2023-07-27T06:00:03.935Z,100.00
2023-07-27T06:02:32.769Z,100.00
2023-07-27T06:04:59.321Z,100.00
2023-07-27T06:07:27.189Z,100.00
2023-07-27T06:09:53.740Z,100.00
2023-07-27T06:12:20.214Z,100.00
2023-07-27T06:14:46.787Z,100.00
2023-07-27T06:17:13.276Z,100.00
2023-07-27T06:19:39.693Z,100.00
2023-07-27T06:22:06.567Z,100.00
2023-07-27T06:24:33.079Z,100.00
2023-07-27T06:26:59.637Z,100.00
2023-07-27T06:29:26.191Z,100.00
2023-07-27T06:31:52.872Z,100.00
2023-07-27T06:34:19.469Z,100.00
2023-07-27T06:36:45.931Z,100.00
2023-07-27T06:39:12.397Z,100.00
2023-07-27T06:41:38.889Z,100.00
2023-07-27T06:44:05.443Z,100.00
2023-07-27T06:46:32.884Z,100.00
2023-07-27T06:48:59.709Z,100.00
2023-07-27T06:51:26.214Z,100.00
2023-07-27T06:53:52.810Z,100.00
2023-07-27T06:56:19.308Z,100.00
2023-07-27T06:58:45.883Z,100.00
2023-07-27T07:01:12.430Z,100.00
2023-07-27T07:03:38.960Z,100.00
2023-07-27T07:06:05.477Z,100.00
2023-07-27T07:08:31.963Z,100.00
2023-07-27T07:10:58.384Z,100.00
2023-07-27T07:13:25.553Z,100.00
2023-07-27T07:15:52.080Z,100.00
2023-07-27T07:18:18.558Z,100.00
2023-07-27T07:20:46.546Z,100.00
2023-07-27T07:23:13.354Z,100.00
2023-07-27T07:25:41.322Z,100.00
2023-07-27T07:28:07.988Z,100.00
2023-07-27T07:30:34.509Z,100.00
2023-07-27T07:33:01.042Z,100.00
2023-07-27T07:35:27.622Z,100.00
2023-07-27T07:37:54.053Z,100.00
2023-07-27T07:40:24.883Z,100.00
2023-07-27T07:42:51.354Z,100.00
2023-07-27T07:45:17.830Z,100.00
2023-07-27T07:47:44.348Z,100.00
2023-07-27T07:50:11.269Z,100.00
2023-07-27T07:52:37.748Z,100.00
2023-07-27T07:55:04.440Z,100.00
2023-07-27T07:57:31.207Z,100.00
2023-07-27T07:59:57.666Z,100.00
2023-07-27T08:02:24.155Z,100.00
2023-07-27T08:04:50.678Z,100.00
2023-07-27T08:07:17.116Z,100.00
2023-07-27T08:09:44.345Z,100.00
2023-07-27T08:12:10.885Z,100.00
2023-07-27T08:14:37.337Z,100.00
2023-07-27T08:17:05.410Z,100.00
2023-07-27T08:19:33.259Z,100.00
2023-07-27T08:21:59.697Z,100.00
2023-07-27T08:24:26.259Z,100.00
2023-07-27T08:26:52.716Z,100.00
2023-07-27T08:29:19.175Z,100.00
2023-07-27T08:31:45.652Z,100.00
2023-07-27T08:34:12.141Z,100.00
2023-07-27T08:36:38.683Z,100.00
2023-07-27T08:39:05.996Z,100.00
2023-07-27T08:41:32.474Z,100.00
2023-07-27T08:43:59.976Z,100.00
2023-07-27T08:46:26.590Z,100.00
2023-07-27T08:48:53.821Z,100.00
2023-07-27T08:51:20.348Z,100.00
2023-07-27T08:53:47.828Z,100.00
2023-07-27T08:56:14.341Z,100.00
2023-07-27T08:58:40.788Z,100.00
2023-07-27T09:01:07.349Z,100.00
2023-07-27T09:03:33.889Z,100.00
2023-07-27T09:06:01.285Z,100.00
2023-07-27T09:08:29.941Z,100.00
2023-07-27T09:11:05.624Z,100.00
2023-07-27T09:13:32.507Z,100.00
2023-07-27T09:15:58.980Z,100.00
2023-07-27T09:18:26.932Z,100.00
2023-07-27T09:20:56.964Z,100.00
2023-07-27T09:23:23.799Z,100.00
2023-07-27T09:25:54.828Z,100.00
2023-07-27T09:28:28.946Z,100.00
2023-07-27T09:31:00.319Z,100.00
2023-07-27T09:33:26.892Z,100.00
2023-07-27T09:35:53.458Z,100.00
2023-07-27T09:38:27.800Z,100.00
2023-07-27T09:40:54.596Z,100.00
2023-07-27T09:43:24.926Z,100.00
2023-07-27T09:46:00.924Z,100.00
2023-07-27T09:48:31.137Z,100.00
2023-07-27T09:51:02.879Z,100.00
2023-07-27T09:53:31.052Z,100.00
2023-07-27T09:55:58.595Z,100.00
2023-07-27T09:58:25.155Z,100.00
2023-07-27T10:00:51.631Z,100.00
2023-07-27T10:03:18.121Z,100.00
2023-07-27T10:05:45.187Z,100.00
2023-07-27T10:08:12.088Z,100.00
2023-07-27T10:10:43.291Z,100.00
2023-07-27T10:13:31.839Z,100.00
2023-07-27T10:16:01.469Z,100.00
2023-07-27T10:18:29.289Z,100.00
2023-07-27T10:20:56.937Z,100.00
2023-07-27T10:23:30.641Z,100.00
2023-07-27T10:25:57.239Z,100.00
2023-07-27T10:28:39.556Z,100.00
2023-07-27T10:31:15.561Z,100.00
2023-07-27T10:33:48.365Z,100.00
2023-07-27T10:36:17.856Z,100.00
2023-07-27T10:38:57.236Z,100.00
2023-07-27T10:41:25.628Z,96.60
2023-07-27T10:44:07.347Z,96.89
2023-07-27T10:46:38.236Z,99.58
2023-07-27T10:49:11.260Z,99.31
2023-07-27T10:51:39.047Z,100.00
2023-07-27T10:54:06.162Z,100.00
2023-07-27T10:56:33.607Z,100.00
2023-07-27T10:59:01.150Z,100.00
2023-07-27T11:01:31.832Z,100.00
2023-07-27T11:03:58.426Z,100.00
2023-07-27T11:06:28.896Z,100.00
2023-07-27T11:08:57.088Z,100.00
2023-07-27T11:11:28.541Z,100.00
2023-07-27T11:14:04.876Z,100.00
2023-07-27T11:16:31.615Z,100.00
2023-07-27T11:18:58.733Z,100.00
2023-07-27T11:21:25.417Z,100.00
2023-07-27T11:23:52.039Z,100.00
2023-07-27T11:26:18.900Z,100.00
2023-07-27T11:28:45.859Z,100.00
2023-07-27T11:31:17.587Z,100.00
2023-07-27T11:33:44.169Z,100.00
2023-07-27T11:36:11.889Z,100.00
2023-07-27T11:38:38.455Z,100.00
2023-07-27T11:41:33.194Z,100.00
2023-07-27T11:43:53.056Z,100.00
2023-07-27T11:46:19.690Z,100.00
2023-07-27T11:48:53.488Z,100.00
2023-07-27T11:51:27.415Z,100.00
2023-07-27T11:53:53.992Z,100.00
2023-07-27T11:56:20.501Z,100.00
2023-07-27T11:58:47.028Z,100.00
2023-07-27T12:01:13.566Z,100.00
2023-07-27T12:03:44.342Z,100.00
2023-07-27T12:06:13.100Z,100.00
2023-07-27T12:08:45.500Z,100.00
2023-07-27T12:11:40.774Z,100.00
2023-07-27T12:14:03.897Z,100.00
2023-07-27T12:19:10.175Z,100.00
2023-07-27T12:21:38.845Z,100.00
2023-07-27T12:34:09.632Z,100.00
2023-07-27T12:36:36.109Z,100.00
2023-07-27T12:39:02.591Z,100.00
2023-07-27T12:41:29.057Z,100.00
2023-07-27T12:43:57.679Z,100.00
2023-07-27T12:46:24.461Z,100.00
2023-07-27T12:48:51.269Z,100.00
2023-07-27T12:51:17.714Z,100.00
2023-07-27T12:53:44.165Z,100.00
2023-07-27T12:56:10.824Z,100.00
2023-07-27T12:58:37.425Z,100.00
2023-07-27T13:01:03.971Z,100.00
2023-07-27T13:03:30.529Z,100.00
2023-07-27T13:05:57.050Z,100.00
2023-07-27T13:08:23.517Z,100.00
2023-07-27T13:10:50.175Z,100.00
2023-07-27T13:13:16.619Z,100.00
2023-07-27T13:15:43.085Z,100.00
2023-07-27T13:18:09.620Z,100.00
2023-07-27T13:20:36.201Z,100.00
2023-07-27T13:23:02.632Z,100.00
2023-07-27T13:25:29.186Z,100.00
2023-07-27T13:27:55.718Z,100.00
2023-07-27T13:30:22.289Z,100.00
2023-07-27T13:32:49.154Z,100.00
2023-07-27T13:35:15.769Z,100.00
2023-07-27T13:37:42.388Z,100.00
2023-07-27T13:40:09.276Z,100.00
2023-07-27T13:42:35.740Z,100.00
2023-07-27T13:45:02.209Z,100.00
2023-07-27T13:47:30.241Z,100.00
2023-07-27T13:49:56.692Z,100.00
2023-07-27T13:52:23.339Z,100.00
2023-07-27T13:54:49.865Z,100.00
2023-07-27T13:57:16.363Z,100.00
2023-07-27T13:59:42.806Z,100.00
2023-07-27T14:02:09.271Z,100.00
2023-07-27T14:04:36.107Z,100.00
2023-07-27T14:07:02.683Z,100.00
2023-07-27T14:09:30.552Z,100.00
2023-07-27T14:11:57.630Z,100.00
2023-07-27T14:14:24.098Z,97.65
2023-07-27T14:16:50.545Z,99.46
2023-07-27T14:19:18.196Z,100.00
2023-07-27T14:21:44.652Z,97.36
2023-07-27T14:24:11.206Z,98.16
2023-07-27T14:26:37.750Z,98.00
2023-07-27T14:29:04.365Z,97.29
2023-07-27T14:31:30.856Z,97.89
2023-07-27T14:33:58.842Z,97.62
2023-07-27T14:36:26.343Z,97.69
2023-07-27T14:41:22.162Z,94.31
2023-07-27T14:43:48.734Z,93.60
2023-07-27T14:46:15.261Z,93.23
2023-07-27T14:48:48.690Z,91.12
2023-07-27T14:51:16.238Z,91.18
2023-07-27T14:53:44.216Z,91.24
2023-07-27T14:56:11.136Z,91.18
2023-07-27T15:01:13.302Z,89.03
2023-07-27T15:03:50.866Z,86.09
2023-07-27T15:06:18.473Z,87.39
2023-07-27T15:08:45.051Z,85.96
2023-07-27T15:13:41.685Z,86.51
2023-07-27T15:16:08.120Z,84.81
2023-07-27T15:18:35.791Z,84.76
2023-07-27T15:21:03.114Z,84.33
2023-07-27T15:23:30.806Z,83.48
2023-07-27T15:26:05.185Z,84.63
2023-07-27T15:28:35.867Z,80.85
2023-07-27T15:31:05.170Z,83.75
2023-07-27T15:33:32.200Z,80.93
2023-07-27T15:35:58.651Z,79.05
2023-07-27T15:38:25.146Z,78.28
2023-07-27T15:40:53.735Z,78.68
2023-07-27T15:43:20.451Z,78.72
2023-07-27T15:45:47.565Z,79.50
2023-07-27T15:48:15.177Z,79.80
2023-07-27T15:50:42.054Z,79.86
2023-07-27T15:53:08.785Z,80.17
2023-07-27T15:55:36.872Z,80.13
2023-07-27T15:58:04.296Z,81.16
2023-07-27T16:00:30.836Z,79.21
2023-07-27T16:02:57.413Z,80.44
2023-07-27T16:05:25.436Z,79.82
2023-07-27T16:07:52.032Z,78.15
2023-07-27T16:10:18.527Z,79.92
2023-07-27T16:12:45.046Z,79.03
2023-07-27T16:15:11.643Z,78.80
2023-07-27T16:17:38.123Z,79.00
2023-07-27T16:20:06.098Z,79.50
2023-07-27T16:22:33.240Z,79.84
2023-07-27T16:24:59.970Z,78.18
2023-07-27T16:27:26.954Z,80.28
2023-07-27T16:29:53.952Z,78.87
2023-07-27T16:32:20.870Z,80.04
2023-07-27T16:34:47.436Z,79.92
2023-07-27T16:37:13.889Z,80.25
2023-07-27T16:39:40.311Z,81.64
2023-07-27T16:42:06.943Z,82.54
2023-07-27T16:44:33.369Z,84.05
2023-07-27T16:46:59.956Z,84.22
2023-07-27T16:49:26.440Z,84.66
2023-07-27T16:51:52.910Z,84.84
2023-07-27T16:54:19.513Z,85.83
2023-07-27T16:56:45.938Z,87.80
2023-07-27T16:59:12.463Z,87.53
2023-07-27T17:01:39.584Z,89.87
2023-07-27T17:04:06.155Z,89.86
2023-07-27T17:06:33.021Z,91.21
2023-07-27T17:09:00.082Z,91.01
2023-07-27T17:11:26.530Z,92.05
2023-07-27T17:13:52.985Z,92.82
2023-07-27T17:16:19.539Z,93.37
2023-07-27T17:18:48.283Z,94.78
2023-07-27T17:21:15.048Z,94.40
2023-07-27T17:23:41.532Z,96.59
2023-07-27T17:26:08.472Z,95.53
2023-07-27T17:28:35.090Z,96.19
2023-07-27T17:31:03.553Z,96.74
2023-07-27T17:33:30.538Z,96.03
2023-07-27T17:36:02.208Z,98.97
2023-07-27T17:38:31.279Z,96.95
2023-07-27T17:40:58.973Z,98.30
2023-07-27T17:43:25.968Z,98.29
2023-07-27T17:45:53.107Z,98.47
2023-07-27T17:48:21.147Z,98.37
2023-07-27T17:50:47.724Z,98.42
2023-07-27T17:53:14.301Z,99.26
2023-07-27T17:55:40.919Z,99.30
2023-07-27T17:58:08.875Z,99.35
2023-07-27T18:00:35.661Z,99.24
2023-07-27T18:03:02.190Z,100.00
2023-07-27T18:05:28.689Z,100.00
2023-07-27T18:07:57.556Z,100.00
2023-07-27T18:10:24.288Z,100.00
2023-07-27T18:12:50.853Z,100.00
2023-07-27T18:15:17.668Z,100.00
2023-07-27T18:17:44.181Z,100.00
2023-07-27T18:20:11.194Z,100.00
2023-07-27T18:22:37.653Z,100.00
2023-07-27T18:25:04.261Z,100.00
2023-07-27T18:27:30.730Z,100.00
2023-07-27T18:29:57.202Z,100.00
2023-07-27T18:32:23.761Z,100.00
2023-07-27T18:34:54.450Z,100.00
2023-07-27T18:37:21.112Z,100.00
2023-07-27T18:39:47.604Z,100.00
2023-07-27T18:42:14.081Z,100.00
2023-07-27T18:44:40.551Z,100.00
2023-07-27T18:47:07.002Z,100.00
2023-07-27T18:49:33.463Z,100.00
2023-07-27T18:52:01.412Z,100.00
2023-07-27T18:54:28.016Z,100.00
2023-07-27T18:56:54.516Z,100.00
2023-07-27T18:59:20.973Z,100.00
2023-07-27T19:01:47.651Z,100.00
2023-07-27T19:04:14.272Z,100.00
2023-07-27T19:06:41.666Z,100.00
2023-07-27T19:09:08.206Z,100.00
2023-07-27T19:11:35.038Z,100.00
2023-07-27T19:14:01.735Z,100.00
2023-07-27T19:16:28.423Z,100.00
2023-07-27T19:18:55.270Z,100.00
2023-07-27T19:21:21.774Z,100.00
2023-07-27T19:23:48.228Z,100.00
2023-07-27T19:26:22.394Z,100.00
2023-07-27T19:28:49.245Z,100.00
2023-07-27T19:31:23.368Z,100.00
2023-07-27T19:33:53.813Z,100.00
2023-07-27T19:36:21.755Z,100.00
2023-07-27T19:38:48.532Z,100.00
2023-07-27T19:41:16.490Z,100.00
2023-07-27T19:43:43.603Z,100.00
2023-07-27T19:46:10.862Z,100.00
2023-07-27T19:48:38.077Z,100.00
2023-07-27T19:51:05.413Z,100.00
2023-07-27T19:53:31.915Z,100.00
2023-07-27T19:56:05.219Z,100.00
2023-07-27T19:58:32.262Z,100.00
2023-07-27T20:00:59.587Z,100.00
2023-07-27T20:03:26.345Z,100.00
2023-07-27T20:05:53.657Z,100.00
2023-07-27T20:08:31.781Z,100.00
2023-07-27T20:11:07.116Z,100.00
2023-07-27T20:13:33.645Z,100.00
2023-07-27T20:16:00.206Z,100.00
2023-07-27T20:18:27.119Z,100.00
2023-07-27T20:20:54.213Z,100.00
2023-07-27T20:23:21.561Z,100.00
2023-07-27T20:25:48.238Z,100.00
2023-07-27T20:28:14.816Z,100.00
2023-07-27T20:30:41.393Z,100.00
2023-07-27T20:33:07.953Z,100.00
2023-07-27T20:35:34.422Z,100.00
2023-07-27T20:38:00.857Z,100.00
2023-07-27T20:40:27.349Z,100.00
2023-07-27T20:42:53.824Z,100.00
2023-07-27T20:45:20.328Z,100.00
2023-07-27T20:47:46.969Z,100.00
2023-07-27T20:50:15.058Z,100.00
2023-07-27T20:52:42.487Z,100.00
2023-07-27T20:55:09.393Z,100.00
2023-07-27T20:57:35.913Z,100.00
2023-07-27T21:00:02.482Z,100.00
2023-07-27T21:02:29.237Z,100.00
2023-07-27T21:04:55.717Z,100.00
2023-07-27T21:07:22.645Z,100.00
2023-07-27T21:09:49.702Z,100.00
2023-07-27T21:12:19.893Z,100.00
2023-07-27T21:14:46.439Z,100.00
2023-07-27T21:17:13.138Z,100.00
2023-07-27T21:19:39.706Z,100.00
2023-07-27T21:22:06.411Z,100.00
2023-07-27T21:24:33.091Z,100.00
2023-07-27T21:26:59.533Z,100.00
2023-07-27T21:29:26.042Z,100.00
2023-07-27T21:31:52.548Z,100.00
2023-07-27T21:34:19.014Z,100.00
2023-07-27T21:36:45.507Z,100.00
2023-07-27T21:39:16.945Z,100.00
2023-07-27T21:41:43.799Z,100.00
2023-07-27T21:44:10.939Z,100.00
2023-07-27T21:46:37.617Z,100.00
2023-07-27T21:49:04.305Z,100.00
2023-07-27T21:51:30.729Z,100.00
2023-07-27T21:53:57.222Z,100.00
2023-07-27T21:56:23.657Z,100.00
2023-07-27T21:58:50.068Z,100.00
2023-07-27T22:01:16.601Z,100.00
2023-07-27T22:03:43.081Z,100.00
2023-07-27T22:06:09.704Z,100.00
2023-07-27T22:08:36.227Z,100.00
2023-07-27T22:11:02.752Z,100.00
2023-07-27T22:13:29.236Z,100.00
2023-07-27T22:15:59.838Z,100.00
2023-07-27T22:18:26.301Z,100.00
2023-07-27T22:20:52.739Z,100.00
2023-07-27T22:23:19.247Z,100.00
2023-07-27T22:25:45.946Z,100.00
2023-07-27T22:28:12.759Z,100.00
2023-07-27T22:30:46.818Z,100.00
2023-07-27T22:33:14.286Z,100.00
2023-07-27T22:35:43.026Z,100.00
2023-07-27T22:38:09.527Z,100.00
2023-07-27T22:40:35.958Z,100.00
2023-07-27T22:43:02.432Z,100.00
2023-07-27T22:45:28.906Z,100.00
2023-07-27T22:47:55.401Z,100.00
2023-07-27T22:50:21.847Z,100.00
2023-07-27T22:52:48.315Z,100.00
2023-07-27T22:55:16.914Z,100.00
2023-07-27T22:57:44.734Z,100.00
2023-07-27T23:00:11.765Z,100.00
2023-07-27T23:02:38.254Z,100.00
2023-07-27T23:05:05.149Z,100.00
2023-07-27T23:07:31.625Z,100.00
2023-07-27T23:09:58.071Z,100.00
2023-07-27T23:12:24.567Z,100.00
2023-07-27T23:14:51.755Z,100.00
2023-07-27T23:17:18.227Z,100.00
2023-07-27T23:19:44.635Z,100.00
2023-07-27T23:22:11.119Z,100.00
2023-07-27T23:24:39.409Z,100.00
2023-07-27T23:27:06.498Z,100.00
2023-07-27T23:29:32.962Z,100.00
2023-07-27T23:31:59.382Z,100.00
2023-07-27T23:34:25.867Z,100.00
2023-07-27T23:36:52.332Z,100.00
2023-07-27T23:39:18.757Z,100.00
2023-07-27T23:41:45.197Z,100.00
2023-07-27T23:44:11.795Z,100.00
2023-07-27T23:46:38.419Z,100.00
2023-07-27T23:49:05.049Z,100.00
2023-07-27T23:51:31.660Z,100.00
2023-07-27T23:53:58.128Z,100.00
2023-07-27T23:56:24.573Z,100.00
2023-07-27T23:58:51.058Z,100.00
